Time;durP1;ratioP1;P1;durP2;ratioP2;P2;SDS_P1;SDS_P2;PMS_P1;PMS_P2;Temp;Humidity;BMP_temperature;BMP_pressure;BME280_temperature;BME280_humidity;BME280_pressure;Samples;Min_cycle;Max_cycle;Signal;HPM_P1;HPM_P2
2022/12/26 00:02:00;;;;;;;6.67;6.07;;;7.40;99.90;;;;;;4990218;28;20301;-72
2022/12/26 00:04:27;;;;;;;7.30;6.13;;;7.40;99.90;;;;;;4990074;28;20226;-72
2022/12/26 00:06:54;;;;;;;8.23;6.33;;;7.50;99.90;;;;;;4989366;28;20206;-72
2022/12/26 00:09:21;;;;;;;6.50;5.90;;;7.50;99.90;;;;;;4989377;28;20313;-72
2022/12/26 00:11:49;;;;;;;6.40;5.80;;;7.50;99.90;;;;;;4989373;28;20918;-72
2022/12/26 00:14:17;;;;;;;6.77;6.13;;;7.50;99.90;;;;;;4990630;28;20288;-73
2022/12/26 00:16:45;;;;;;;9.50;6.30;;;7.70;99.90;;;;;;4989738;28;20250;-71
2022/12/26 00:19:12;;;;;;;6.97;6.27;;;7.70;99.90;;;;;;4990091;28;20206;-71
2022/12/26 00:21:39;;;;;;;7.03;6.13;;;7.70;99.90;;;;;;4989484;28;20891;-72
2022/12/26 00:24:06;;;;;;;6.63;6.03;;;7.60;99.90;;;;;;4990145;28;20214;-72
2022/12/26 00:26:35;;;;;;;6.00;5.47;;;7.60;99.90;;;;;;4989971;28;20336;-72
2022/12/26 00:29:03;;;;;;;6.23;5.63;;;7.60;99.90;;;;;;4989942;28;20217;-71
2022/12/26 00:31:32;;;;;;;6.90;5.77;;;7.60;99.90;;;;;;4989977;28;20297;-72
2022/12/26 00:33:59;;;;;;;8.47;5.77;;;7.60;99.90;;;;;;4988910;28;20333;-72
2022/12/26 00:36:28;;;;;;;6.73;6.03;;;7.60;99.90;;;;;;4989285;28;20305;-72
2022/12/26 00:38:56;;;;;;;8.13;5.67;;;7.60;99.90;;;;;;4989867;28;20272;-72
2022/12/26 00:41:24;;;;;;;9.43;5.77;;;7.60;99.90;;;;;;4989310;28;20214;-72
2022/12/26 00:43:51;;;;;;;7.07;6.10;;;7.60;99.90;;;;;;4989571;28;20668;-72
2022/12/26 00:46:19;;;;;;;6.30;5.70;;;7.60;99.90;;;;;;4986260;28;20264;-72
2022/12/26 00:48:47;;;;;;;6.10;5.60;;;7.60;99.90;;;;;;4988716;28;20293;-72
2022/12/26 00:51:14;;;;;;;6.27;5.23;;;7.60;99.90;;;;;;4989487;28;20293;-74
2022/12/26 00:53:41;;;;;;;6.20;5.60;;;7.70;99.90;;;;;;4989050;28;20327;-72
2022/12/26 00:56:09;;;;;;;6.47;5.40;;;7.70;99.90;;;;;;4989478;28;20245;-73
2022/12/26 00:58:36;;;;;;;6.13;5.63;;;7.60;99.90;;;;;;4989258;28;20229;-72
2022/12/26 01:01:08;;;;;;;5.90;5.40;;;7.60;99.90;;;;;;4989465;28;20296;-73
2022/12/26 01:03:37;;;;;;;5.50;4.97;;;7.70;99.90;;;;;;4989233;28;20302;-73
2022/12/26 01:06:04;;;;;;;5.90;5.20;;;7.70;99.90;;;;;;5000314;28;20301;-73
2022/12/26 01:08:32;;;;;;;7.13;5.43;;;7.70;99.90;;;;;;5008115;28;20225;-72
2022/12/26 01:11:03;;;;;;;6.97;5.47;;;7.60;99.90;;;;;;5008368;28;20233;-72
2022/12/26 01:13:30;;;;;;;6.07;5.10;;;7.70;99.90;;;;;;5007357;28;20328;-72
2022/12/26 01:15:57;;;;;;;6.47;5.30;;;7.70;99.90;;;;;;4989379;28;20206;-72
2022/12/26 01:18:25;;;;;;;6.40;5.27;;;7.70;99.90;;;;;;4989000;28;20244;-72
2022/12/26 01:20:58;;;;;;;5.53;5.00;;;7.70;99.90;;;;;;4989574;28;20285;-72
2022/12/26 01:23:25;;;;;;;6.17;5.23;;;7.70;99.90;;;;;;4988937;28;20281;-72
2022/12/26 01:25:52;;;;;;;5.67;5.00;;;7.70;99.90;;;;;;4988690;28;20242;-72
2022/12/26 01:28:19;;;;;;;4.90;4.60;;;7.70;99.90;;;;;;4988978;28;20289;-72
2022/12/26 01:30:46;;;;;;;5.37;4.97;;;7.70;99.90;;;;;;4988766;28;20354;-71
2022/12/26 01:33:13;;;;;;;5.80;5.20;;;7.70;99.90;;;;;;4988091;28;20617;-72
2022/12/26 01:35:48;;;;;;;5.30;4.80;;;8.00;99.90;;;;;;4988553;28;20234;-72
2022/12/26 01:38:16;;;;;;;7.63;5.60;;;8.00;99.90;;;;;;4987906;28;20296;-72
2022/12/26 01:40:43;;;;;;;5.67;5.17;;;8.00;99.90;;;;;;4988411;28;20750;-71
2022/12/26 01:43:12;;;;;;;5.57;5.17;;;8.00;99.90;;;;;;4987963;28;20222;-72
2022/12/26 01:45:39;;;;;;;6.03;5.50;;;7.90;99.90;;;;;;4987366;28;20329;-71
2022/12/26 01:48:16;;;;;;;5.70;5.10;;;8.00;99.90;;;;;;4987779;28;20324;-72
2022/12/26 01:50:48;;;;;;;5.80;5.10;;;8.00;99.90;;;;;;4987712;28;20281;-71
2022/12/26 01:53:20;;;;;;;6.00;4.63;;;8.00;99.90;;;;;;4988589;28;20322;-71
2022/12/26 01:55:50;;;;;;;5.40;4.80;;;8.00;99.90;;;;;;4988129;28;20209;-71
2022/12/26 01:58:22;;;;;;;5.53;5.03;;;8.10;99.90;;;;;;4988207;28;20252;-71
2022/12/26 02:00:50;;;;;;;6.30;5.17;;;8.30;99.90;;;;;;4988131;28;20628;-72
2022/12/26 02:06:02;;;;;;;5.70;5.03;;;8.30;99.90;;;;;;4988297;28;20202;-71
2022/12/26 02:08:33;;;;;;;5.73;5.23;;;8.30;99.90;;;;;;4988133;28;20316;-72
2022/12/26 02:11:08;;;;;;;5.93;4.60;;;8.30;99.90;;;;;;4987984;28;20249;-72
2022/12/26 02:13:36;;;;;;;5.17;4.50;;;8.40;99.90;;;;;;4987992;28;20596;-72
2022/12/26 02:16:05;;;;;;;5.70;4.93;;;8.60;99.90;;;;;;4987560;28;20301;-73
2022/12/26 02:18:32;;;;;;;5.00;4.60;;;8.70;99.90;;;;;;4986914;28;20305;-73
2022/12/26 02:21:18;;;;;;;5.57;5.07;;;8.80;99.90;;;;;;4987736;28;20293;-71
2022/12/26 02:24:12;;;;;;;5.33;4.83;;;8.80;99.90;;;;;;4987510;28;20293;-72
2022/12/26 02:27:02;;;;;;;5.00;4.50;;;8.90;99.90;;;;;;4987660;28;20230;-72
2022/12/26 02:30:03;;;;;;;5.30;4.80;;;9.00;99.90;;;;;;4987183;28;20638;-72
2022/12/26 02:32:53;;;;;;;5.73;4.80;;;9.20;99.90;;;;;;4987187;28;20285;-72
2022/12/26 02:35:31;;;;;;;5.07;4.67;;;9.20;99.90;;;;;;4967626;28;20748;-72
2022/12/26 02:38:09;;;;;;;4.73;4.33;;;9.30;99.90;;;;;;4970036;28;20217;-73
2022/12/26 02:40:52;;;;;;;4.93;4.60;;;9.30;99.90;;;;;;4987842;28;20293;-73
2022/12/26 02:43:24;;;;;;;4.97;4.50;;;9.30;99.90;;;;;;4987223;28;20304;-72
2022/12/26 02:48:57;;;;;;;4.73;4.20;;;9.40;99.90;;;;;;4987150;28;20237;-71
2022/12/26 03:14:10;;;;;;;3.90;3.60;;;9.70;99.90;;;;;;4971222;28;20277;-73
2022/12/26 03:19:26;;;;;;;3.80;3.50;;;9.70;99.90;;;;;;4990176;28;20217;-72
2022/12/26 03:21:55;;;;;;;3.40;3.20;;;9.80;99.90;;;;;;4990674;28;20208;-72
2022/12/26 03:24:22;;;;;;;3.57;3.20;;;9.80;99.90;;;;;;4990896;28;20217;-72
2022/12/26 03:26:53;;;;;;;3.83;3.30;;;9.70;99.90;;;;;;4990412;28;20862;-72
2022/12/26 03:32:08;;;;;;;3.43;3.13;;;9.80;99.90;;;;;;4990723;28;20263;-72
2022/12/26 03:34:39;;;;;;;3.50;3.17;;;9.80;99.90;;;;;;4989550;28;20232;-72
2022/12/26 03:37:42;;;;;;;3.20;3.00;;;9.90;99.90;;;;;;4990628;28;20282;-72
2022/12/26 04:20:22;;;;;;;3.97;3.67;;;10.00;99.90;;;;;;4989961;28;20229;-71
2022/12/26 04:45:23;;;;;;;3.37;3.17;;;9.80;99.90;;;;;;4986191;28;20735;-71
2022/12/26 04:50:35;;;;;;;3.50;3.20;;;9.80;99.90;;;;;;4970022;28;20260;-72
2022/12/26 04:53:02;;;;;;;3.60;3.30;;;9.90;99.90;;;;;;4970483;28;20586;-72
2022/12/26 04:55:30;;;;;;;4.53;3.37;;;9.80;99.90;;;;;;4972587;28;20233;-72
2022/12/26 04:57:58;;;;;;;3.20;3.00;;;9.90;99.90;;;;;;4989668;28;20206;-72
2022/12/26 05:00:28;;;;;;;3.47;3.27;;;9.90;99.90;;;;;;5005778;28;20205;-73
2022/12/26 05:11:15;;;;;;;3.80;3.50;;;9.80;99.90;;;;;;5008690;28;20753;-72
2022/12/26 05:13:42;;;;;;;3.20;3.00;;;9.80;99.90;;;;;;4998707;28;20288;-72
2022/12/26 05:29:57;;;;;;;3.10;2.90;;;10.00;99.90;;;;;;4988976;28;20228;-72
2022/12/26 05:35:10;;;;;;;3.30;3.00;;;10.10;99.90;;;;;;4988987;28;20704;-72
2022/12/26 05:37:37;;;;;;;3.10;2.90;;;10.20;99.90;;;;;;4989141;28;20206;-72
2022/12/26 05:40:05;;;;;;;3.13;2.93;;;10.20;99.90;;;;;;4988862;28;20301;-72
2022/12/26 05:42:32;;;;;;;2.97;2.77;;;10.20;99.90;;;;;;4988703;28;20665;-73
2022/12/26 05:44:58;;;;;;;2.97;2.73;;;10.20;99.90;;;;;;4988683;28;21000;-73
2022/12/26 05:47:27;;;;;;;3.10;2.87;;;10.10;99.90;;;;;;4988565;28;20206;-72
2022/12/26 05:49:54;;;;;;;3.10;2.90;;;10.20;99.90;;;;;;4988674;28;20297;-72
2022/12/26 05:52:20;;;;;;;3.83;2.80;;;10.20;99.90;;;;;;4988794;28;20297;-72
2022/12/26 05:54:47;;;;;;;3.33;3.03;;;10.30;99.90;;;;;;4988417;28;20273;-72
2022/12/26 05:57:14;;;;;;;3.30;3.00;;;10.30;99.90;;;;;;4988595;28;20210;-72
2022/12/26 05:59:41;;;;;;;3.33;3.00;;;10.30;99.90;;;;;;4988637;28;20316;-72
2022/12/26 06:02:08;;;;;;;3.50;3.20;;;10.30;99.90;;;;;;4988887;28;20206;-72
2022/12/26 06:04:36;;;;;;;3.03;2.80;;;10.30;99.90;;;;;;4988120;28;20292;-72
2022/12/26 06:07:04;;;;;;;3.10;2.90;;;10.30;99.90;;;;;;4988624;28;20573;-72
2022/12/26 06:09:31;;;;;;;3.23;3.00;;;10.30;99.90;;;;;;4988053;28;20329;-72
2022/12/26 06:11:58;;;;;;;2.87;2.77;;;10.30;99.90;;;;;;4987923;28;20261;-71
2022/12/26 06:14:25;;;;;;;3.57;2.60;;;10.30;99.90;;;;;;4987984;28;20238;-72
2022/12/26 06:16:52;;;;;;;3.43;2.93;;;10.30;99.90;;;;;;4988323;28;20744;-73
2022/12/26 06:19:19;;;;;;;3.10;2.90;;;10.30;99.90;;;;;;4987955;28;20444;-73
2022/12/26 06:21:47;;;;;;;3.03;2.83;;;10.30;99.90;;;;;;4988412;28;20321;-73
2022/12/26 06:24:14;;;;;;;3.07;2.80;;;10.30;99.90;;;;;;4988422;28;20206;-73
2022/12/26 06:26:41;;;;;;;3.00;2.80;;;10.30;99.90;;;;;;4988518;28;20214;-72
2022/12/26 06:29:09;;;;;;;2.77;2.57;;;10.30;99.90;;;;;;4988422;28;20233;-72
2022/12/26 06:31:36;;;;;;;2.70;2.60;;;10.30;99.90;;;;;;4990540;28;20292;-73
2022/12/26 06:34:03;;;;;;;3.13;2.93;;;10.30;99.90;;;;;;4991938;28;20786;-73
2022/12/26 06:36:30;;;;;;;3.00;2.80;;;10.30;99.90;;;;;;4992253;28;20297;-73
2022/12/26 06:38:59;;;;;;;2.80;2.70;;;10.40;99.90;;;;;;4992448;28;20574;-73
2022/12/26 06:41:26;;;;;;;3.80;2.70;;;10.30;99.90;;;;;;4992497;28;21050;-73
2022/12/26 06:43:54;;;;;;;3.13;2.70;;;10.20;99.90;;;;;;4992093;28;20775;-73
2022/12/26 06:46:23;;;;;;;3.23;2.93;;;10.20;99.90;;;;;;4991910;28;20249;-72
2022/12/26 06:48:51;;;;;;;3.20;3.00;;;10.30;99.90;;;;;;4992012;28;20210;-72
2022/12/26 06:51:20;;;;;;;3.97;2.97;;;10.30;99.90;;;;;;4991835;28;20202;-73
2022/12/26 06:53:47;;;;;;;3.67;2.80;;;10.30;99.90;;;;;;4991862;28;20231;-73
2022/12/26 06:56:18;;;;;;;3.30;3.00;;;10.30;99.90;;;;;;4991999;28;20294;-72
2022/12/26 06:58:46;;;;;;;3.20;2.90;;;10.40;99.90;;;;;;4991829;28;20233;-73
2022/12/26 07:01:14;;;;;;;4.17;3.77;;;10.30;99.90;;;;;;4991544;28;20333;-72
2022/12/26 07:03:42;;;;;;;3.97;3.67;;;10.40;99.90;;;;;;4991543;28;20563;-72
2022/12/26 07:06:13;;;;;;;3.30;2.80;;;10.40;99.90;;;;;;4991379;28;20220;-72
2022/12/26 07:08:40;;;;;;;4.60;2.90;;;10.40;99.90;;;;;;4991859;28;20312;-72
2022/12/26 07:11:15;;;;;;;2.87;2.73;;;10.50;99.90;;;;;;4991143;28;20333;-73
2022/12/26 07:13:42;;;;;;;2.90;2.73;;;10.40;99.90;;;;;;4991674;28;20281;-72
2022/12/26 07:16:09;;;;;;;2.43;2.33;;;10.50;99.90;;;;;;4991526;28;20220;-72
2022/12/26 07:18:36;;;;;;;2.70;2.20;;;10.40;99.90;;;;;;4990964;28;20241;-72
2022/12/26 07:21:05;;;;;;;2.83;2.73;;;10.40;99.90;;;;;;4990588;28;20241;-72
2022/12/26 07:23:33;;;;;;;2.80;2.60;;;10.40;99.90;;;;;;4991086;28;20202;-72
2022/12/26 07:26:00;;;;;;;2.67;2.50;;;10.30;99.90;;;;;;4990763;28;20301;-72
2022/12/26 07:28:29;;;;;;;3.13;2.63;;;10.30;99.90;;;;;;4991273;28;20563;-72
2022/12/26 07:30:58;;;;;;;2.73;2.53;;;10.30;99.90;;;;;;4991165;28;20300;-73
2022/12/26 07:33:26;;;;;;;4.23;3.10;;;10.30;99.90;;;;;;4991046;28;20211;-73
2022/12/26 07:35:53;;;;;;;3.10;2.90;;;10.20;99.90;;;;;;4990767;28;20316;-73
2022/12/26 07:38:20;;;;;;;3.10;2.90;;;10.30;99.90;;;;;;4995167;28;20365;-72
2022/12/26 07:40:47;;;;;;;3.30;3.10;;;10.30;99.90;;;;;;5010794;28;20321;-73
2022/12/26 07:43:14;;;;;;;2.97;2.77;;;10.20;99.90;;;;;;5011017;28;20304;-72
2022/12/26 07:45:42;;;;;;;3.10;2.90;;;10.20;99.90;;;;;;5004068;28;20305;-73
2022/12/26 07:48:09;;;;;;;2.87;2.67;;;10.20;99.90;;;;;;4991064;28;20215;-72
2022/12/26 07:50:36;;;;;;;2.93;2.73;;;10.20;99.90;;;;;;4990916;28;20293;-72
2022/12/26 07:53:03;;;;;;;3.53;3.00;;;10.20;99.90;;;;;;4991168;28;20397;-72
2022/12/26 07:55:30;;;;;;;2.60;2.50;;;10.30;99.90;;;;;;4990953;28;20261;-72
2022/12/26 07:57:57;;;;;;;3.10;2.90;;;10.20;99.90;;;;;;4990887;28;20301;-72
2022/12/26 08:00:23;;;;;;;3.07;2.87;;;10.20;99.90;;;;;;4990658;28;20268;-71
2022/12/26 08:02:52;;;;;;;2.90;2.60;;;10.20;99.90;;;;;;4990263;28;20297;-72
2022/12/26 08:05:20;;;;;;;3.17;2.97;;;10.20;99.90;;;;;;4990678;28;20711;-72
2022/12/26 08:07:47;;;;;;;3.13;2.93;;;10.20;99.90;;;;;;4990621;28;20234;-72
2022/12/26 08:10:15;;;;;;;3.03;2.83;;;10.20;99.90;;;;;;4990309;28;20218;-72
2022/12/26 08:12:41;;;;;;;2.90;2.70;;;10.20;99.90;;;;;;4990070;28;20269;-72
2022/12/26 08:15:09;;;;;;;3.10;2.87;;;10.20;99.90;;;;;;4990194;28;20284;-72
2022/12/26 08:17:36;;;;;;;2.73;2.63;;;10.10;99.90;;;;;;4990337;28;20217;-72
2022/12/26 08:20:06;;;;;;;2.73;2.50;;;10.20;99.90;;;;;;4990590;28;20298;-72
2022/12/26 08:22:33;;;;;;;3.30;2.50;;;10.10;99.90;;;;;;4990381;28;20293;-72
2022/12/26 08:24:59;;;;;;;2.73;2.53;;;10.10;99.90;;;;;;4990560;28;20212;-72
2022/12/26 08:27:26;;;;;;;2.50;2.40;;;10.10;99.90;;;;;;4990107;28;20233;-72
2022/12/26 08:29:53;;;;;;;2.63;2.50;;;10.10;99.90;;;;;;4990098;28;20301;-72
2022/12/26 08:32:20;;;;;;;2.90;2.70;;;10.10;99.90;;;;;;4990280;28;20221;-71
2022/12/26 08:34:47;;;;;;;2.50;2.30;;;10.10;99.90;;;;;;4989578;28;20257;-71
2022/12/26 08:37:15;;;;;;;2.40;2.30;;;10.10;99.90;;;;;;4990124;28;20248;-72
2022/12/26 08:39:42;;;;;;;2.10;2.00;;;10.10;99.90;;;;;;4990005;28;20297;-72
2022/12/26 08:42:09;;;;;;;1.93;1.83;;;10.00;99.90;;;;;;4989788;28;20245;-72
2022/12/26 08:44:36;;;;;;;2.17;2.00;;;10.00;99.90;;;;;;4989761;28;20587;-72
2022/12/26 08:47:03;;;;;;;2.10;2.00;;;10.10;99.90;;;;;;4989605;28;20661;-72
2022/12/26 08:49:30;;;;;;;2.87;2.63;;;10.10;99.90;;;;;;4989256;28;20214;-72
2022/12/26 08:51:57;;;;;;;4.20;2.63;;;10.10;99.90;;;;;;4989621;28;20230;-74
2022/12/26 08:54:25;;;;;;;2.33;2.23;;;10.10;99.90;;;;;;4989348;28;20329;-73
2022/12/26 08:56:52;;;;;;;2.60;2.40;;;10.10;99.90;;;;;;4989585;28;20206;-73
2022/12/26 08:59:19;;;;;;;2.70;2.13;;;10.10;99.90;;;;;;4989650;28;20301;-74
2022/12/26 09:01:46;;;;;;;2.53;2.33;;;10.10;99.90;;;;;;4990016;28;20729;-72
2022/12/26 09:04:13;;;;;;;2.63;2.43;;;10.20;99.90;;;;;;4989649;28;20648;-72
2022/12/26 09:06:40;;;;;;;2.20;2.00;;;10.20;99.90;;;;;;4989151;28;20536;-72
2022/12/26 09:09:10;;;;;;;2.43;2.23;;;10.20;99.90;;;;;;4989360;28;20317;-72
2022/12/26 09:11:39;;;;;;;2.60;2.40;;;10.20;99.90;;;;;;4985845;28;20237;-72
2022/12/26 09:14:06;;;;;;;2.57;2.37;;;10.20;99.90;;;;;;4985313;28;20210;-72
2022/12/26 09:16:36;;;;;;;2.20;2.10;;;10.20;99.90;;;;;;4985348;28;20320;-72
2022/12/26 09:19:04;;;;;;;2.80;2.60;;;10.30;99.90;;;;;;4984859;28;20296;-72
2022/12/26 09:21:32;;;;;;;3.67;2.63;;;10.30;99.90;;;;;;4984656;28;20206;-72
2022/12/26 09:24:00;;;;;;;3.17;2.60;;;10.30;99.90;;;;;;4985254;28;20206;-72
2022/12/26 09:26:27;;;;;;;2.87;2.67;;;10.30;99.90;;;;;;4984916;28;20268;-72
2022/12/26 09:28:56;;;;;;;2.90;2.40;;;10.30;99.90;;;;;;4986438;28;20297;-72
2022/12/26 09:31:25;;;;;;;3.50;2.50;;;10.30;99.90;;;;;;4985998;28;20261;-72
2022/12/26 09:33:53;;;;;;;2.80;2.60;;;10.30;99.90;;;;;;4983970;28;20811;-72
2022/12/26 09:36:21;;;;;;;3.00;2.33;;;10.30;99.90;;;;;;4985500;28;20241;-72
2022/12/26 09:38:49;;;;;;;3.40;2.80;;;10.30;99.90;;;;;;4985168;28;20305;-72
2022/12/26 09:41:36;;;;;;;3.17;2.80;;;10.30;99.90;;;;;;4985604;28;20321;-72
2022/12/26 09:44:09;;;;;;;2.53;2.43;;;10.30;99.90;;;;;;4977936;28;20290;-72
2022/12/26 09:46:44;;;;;;;2.80;2.60;;;10.30;99.90;;;;;;4980347;28;20329;-72
2022/12/26 09:49:16;;;;;;;2.40;2.30;;;10.40;99.90;;;;;;4986324;28;20221;-72
2022/12/26 09:51:47;;;;;;;4.17;2.80;;;10.40;99.90;;;;;;4986652;28;20202;-72
2022/12/26 09:54:22;;;;;;;3.67;2.83;;;10.40;99.90;;;;;;4986812;28;20316;-72
2022/12/26 09:56:51;;;;;;;2.60;2.50;;;10.40;99.90;;;;;;4986934;28;20212;-72
2022/12/26 09:59:23;;;;;;;2.87;2.67;;;10.40;99.90;;;;;;4986664;28;20206;-73
2022/12/26 10:01:51;;;;;;;2.40;2.20;;;10.40;99.90;;;;;;4986856;28;20204;-72
2022/12/26 10:04:23;;;;;;;2.70;2.30;;;10.50;99.90;;;;;;4986518;28;20586;-72
2022/12/26 10:06:58;;;;;;;2.40;2.20;;;10.50;99.90;;;;;;4987070;28;20570;-72
2022/12/26 10:10:00;;;;;;;2.47;2.27;;;10.50;99.90;;;;;;4987371;28;20257;-72
2022/12/26 10:12:48;;;;;;;2.30;2.20;;;10.60;99.90;;;;;;4979775;28;20897;-72
2022/12/26 10:15:31;;;;;;;2.30;2.20;;;10.60;99.90;;;;;;4986480;28;20268;-72
2022/12/26 10:18:10;;;;;;;3.10;2.90;;;10.60;99.90;;;;;;4986672;28;20648;-72
2022/12/26 10:20:46;;;;;;;2.37;2.27;;;10.50;99.90;;;;;;4986474;28;20313;-72
2022/12/26 10:23:28;;;;;;;2.03;1.93;;;10.50;99.90;;;;;;4986719;28;20214;-72
2022/12/26 10:25:59;;;;;;;1.97;1.87;;;10.60;99.90;;;;;;4986779;28;20288;-72
2022/12/26 10:28:32;;;;;;;2.10;2.00;;;10.60;99.90;;;;;;4986990;28;20198;-72
2022/12/26 10:31:05;;;;;;;3.87;2.40;;;10.60;99.90;;;;;;4986792;28;20201;-72
2022/12/26 10:33:41;;;;;;;2.00;1.90;;;10.50;99.90;;;;;;4986423;28;20204;-72
2022/12/26 10:36:14;;;;;;;2.10;2.00;;;10.60;99.90;;;;;;4986330;28;20253;-73
2022/12/26 10:38:45;;;;;;;2.40;2.17;;;10.50;99.90;;;;;;4986485;28;20193;-73
2022/12/26 10:41:18;;;;;;;2.20;2.10;;;10.50;99.90;;;;;;4986390;28;20757;-73
2022/12/26 10:43:46;;;;;;;1.70;1.70;;;10.50;99.90;;;;;;4986602;28;20841;-72
2022/12/26 10:46:47;;;;;;;1.80;1.70;;;10.50;99.90;;;;;;4986172;28;20950;-72
2022/12/26 10:49:17;;;;;;;2.73;1.57;;;10.50;99.90;;;;;;4980609;28;20317;-72
2022/12/26 10:51:45;;;;;;;1.60;1.50;;;10.50;99.90;;;;;;4986239;28;20272;-72
2022/12/26 10:54:17;;;;;;;1.77;1.67;;;10.40;99.90;;;;;;4986376;28;20897;-72
2022/12/26 10:56:44;;;;;;;2.03;1.77;;;10.40;99.90;;;;;;4986025;28;20268;-72
2022/12/26 10:59:16;;;;;;;1.80;1.67;;;10.40;99.90;;;;;;4986077;28;20265;-72
2022/12/26 11:01:47;;;;;;;1.73;1.63;;;10.30;99.90;;;;;;4986056;28;20198;-72
2022/12/26 11:04:19;;;;;;;1.73;1.70;;;10.30;99.90;;;;;;4985913;28;20194;-72
2022/12/26 11:06:51;;;;;;;1.90;1.80;;;10.30;99.90;;;;;;4985651;28;20641;-72
2022/12/26 11:09:38;;;;;;;1.57;1.50;;;10.30;99.90;;;;;;4986099;28;20233;-72
2022/12/26 11:12:06;;;;;;;1.70;1.60;;;10.30;99.90;;;;;;4985562;28;20244;-72
2022/12/26 11:14:36;;;;;;;1.50;1.50;;;10.30;99.90;;;;;;4986156;28;20210;-72
2022/12/26 11:17:07;;;;;;;1.93;1.83;;;10.20;99.90;;;;;;4987245;28;20238;-72
2022/12/26 11:19:36;;;;;;;1.90;1.80;;;10.20;99.90;;;;;;4989108;28;20289;-72
2022/12/26 11:22:24;;;;;;;1.80;1.70;;;10.20;99.90;;;;;;4989959;28;20418;-72
2022/12/26 11:25:16;;;;;;;2.00;1.90;;;10.20;99.90;;;;;;4990337;28;20293;-72
2022/12/26 11:27:45;;;;;;;2.00;1.80;;;10.20;99.90;;;;;;4990100;28;20230;-72
2022/12/26 11:30:21;;;;;;;1.80;1.70;;;10.20;99.90;;;;;;4990123;28;20297;-73
2022/12/26 11:33:03;;;;;;;1.73;1.63;;;10.10;99.90;;;;;;4989715;28;20205;-72
2022/12/26 11:35:36;;;;;;;1.60;1.50;;;10.10;99.90;;;;;;4988823;28;20962;-72
2022/12/26 11:38:04;;;;;;;2.03;1.93;;;10.10;99.90;;;;;;4990015;28;20195;-72
2022/12/26 11:40:37;;;;;;;2.10;2.00;;;10.10;99.90;;;;;;4989269;28;20221;-72
2022/12/26 11:43:07;;;;;;;2.67;2.40;;;10.10;99.90;;;;;;4989415;28;20206;-72
2022/12/26 11:45:49;;;;;;;2.13;1.93;;;10.10;99.90;;;;;;4988882;28;20238;-72
2022/12/26 11:48:25;;;;;;;2.10;1.80;;;10.10;99.90;;;;;;4988923;28;20216;-72
2022/12/26 11:50:53;;;;;;;1.80;1.73;;;10.10;99.90;;;;;;4989103;28;20292;-72
2022/12/26 11:53:22;;;;;;;2.10;1.90;;;10.10;99.90;;;;;;4989139;28;20734;-72
2022/12/26 11:55:59;;;;;;;2.70;1.80;;;10.20;99.90;;;;;;4988457;28;20244;-72
2022/12/26 11:58:28;;;;;;;2.33;2.10;;;10.20;99.90;;;;;;4989091;28;20290;-72
2022/12/26 12:01:15;;;;;;;2.67;2.47;;;10.20;99.90;;;;;;4988941;28;20210;-72
2022/12/26 12:03:44;;;;;;;2.20;2.10;;;10.20;99.90;;;;;;4988882;28;20208;-72
2022/12/26 12:06:35;;;;;;;2.77;2.30;;;10.20;99.90;;;;;;4988532;28;20760;-72
2022/12/26 12:09:13;;;;;;;2.90;2.70;;;10.20;99.90;;;;;;4977177;28;20322;-72
2022/12/26 12:11:47;;;;;;;4.50;4.10;;;10.20;99.90;;;;;;4988734;28;20676;-72
2022/12/26 12:14:28;;;;;;;3.50;3.20;;;10.20;99.90;;;;;;4988971;28;20202;-72
2022/12/26 12:17:03;;;;;;;2.50;2.30;;;10.20;99.90;;;;;;4985479;28;20238;-72
2022/12/26 12:19:45;;;;;;;2.90;2.60;;;10.20;99.90;;;;;;4988542;28;20222;-72
2022/12/26 12:22:45;;;;;;;2.37;2.27;;;10.20;99.90;;;;;;4987773;28;20273;-72
2022/12/26 12:25:26;;;;;;;2.80;2.60;;;10.20;99.90;;;;;;4983314;28;20605;-72
2022/12/26 12:28:01;;;;;;;2.50;2.30;;;10.20;99.90;;;;;;4987930;28;20221;-72
2022/12/26 12:30:37;;;;;;;2.70;2.53;;;10.20;99.90;;;;;;4987899;28;20267;-72
2022/12/26 12:33:18;;;;;;;2.40;2.30;;;10.20;99.90;;;;;;4988565;28;20197;-72
2022/12/26 12:36:01;;;;;;;2.70;2.50;;;10.20;99.90;;;;;;4988236;28;20321;-72
2022/12/26 12:38:32;;;;;;;2.80;2.60;;;10.20;99.90;;;;;;4988616;28;20222;-72
2022/12/26 12:41:10;;;;;;;2.50;2.40;;;10.20;99.90;;;;;;4988286;28;20281;-72
2022/12/26 12:43:45;;;;;;;2.70;2.50;;;10.20;99.90;;;;;;4987827;28;20297;-72
2022/12/26 12:46:22;;;;;;;5.37;2.57;;;10.20;99.90;;;;;;4987811;28;20759;-72
2022/12/26 12:49:26;;;;;;;2.20;2.10;;;10.30;99.90;;;;;;4988072;28;20285;-70
2022/12/26 12:52:02;;;;;;;2.40;2.27;;;10.30;99.90;;;;;;4966206;28;20210;-71
2022/12/26 12:55:08;;;;;;;2.47;2.37;;;10.30;99.90;;;;;;4985565;28;20210;-71
2022/12/26 12:57:43;;;;;;;2.93;2.60;;;10.30;99.90;;;;;;4908215;29;20348;-71
2022/12/26 13:00:16;;;;;;;3.07;2.57;;;10.30;99.90;;;;;;4978693;28;20260;-72
2022/12/26 13:02:51;;;;;;;2.33;2.23;;;10.30;99.90;;;;;;4987637;28;20450;-71
2022/12/26 13:05:26;;;;;;;2.70;2.50;;;10.30;99.90;;;;;;4987369;28;20265;-71
2022/12/26 13:07:57;;;;;;;2.30;2.20;;;10.30;99.90;;;;;;4987950;28;20226;-71
2022/12/26 13:10:29;;;;;;;2.23;2.10;;;10.30;99.90;;;;;;4987646;28;20285;-71
2022/12/26 13:12:59;;;;;;;2.47;2.37;;;10.20;99.90;;;;;;5006251;28;20202;-71
2022/12/26 13:15:35;;;;;;;2.43;2.23;;;10.20;99.90;;;;;;4996810;28;20293;-70
2022/12/26 13:18:07;;;;;;;2.17;2.07;;;10.20;99.90;;;;;;4968018;28;20260;-71
2022/12/26 13:20:41;;;;;;;2.40;2.20;;;10.20;99.90;;;;;;4968119;28;20654;-71
2022/12/26 13:26:11;;;;;;;2.37;2.27;;;10.20;99.90;;;;;;4977970;28;20213;-70
2022/12/26 13:29:01;;;;;;;3.00;2.70;;;10.20;99.90;;;;;;4987225;28;20197;-71
2022/12/26 13:31:33;;;;;;;2.60;2.50;;;10.30;99.90;;;;;;4987542;28;20249;-71
2022/12/26 13:34:01;;;;;;;2.33;2.20;;;10.30;99.90;;;;;;4987122;28;20199;-71
2022/12/26 13:36:37;;;;;;;2.30;2.20;;;10.30;99.90;;;;;;4986790;28;20792;-71
2022/12/26 13:39:35;;;;;;;2.83;2.73;;;10.40;99.90;;;;;;4987153;28;20305;-71
2022/12/26 13:45:57;;;;;;;2.30;2.20;;;10.40;99.90;;;;;;4986992;28;20224;-71
2022/12/26 13:48:53;;;;;;;2.60;2.50;;;10.50;99.90;;;;;;4986382;28;20880;-71
2022/12/26 13:51:55;;;;;;;2.40;2.30;;;10.40;99.90;;;;;;4986962;28;20198;-72
2022/12/26 13:54:25;;;;;;;2.90;2.63;;;10.40;99.90;;;;;;4907682;29;20295;-72
2022/12/26 13:57:24;;;;;;;2.43;2.33;;;10.40;99.90;;;;;;4907034;29;20328;-71
2022/12/26 14:00:07;;;;;;;2.90;2.70;;;10.40;99.90;;;;;;4961910;28;20228;-71
2022/12/26 14:03:15;;;;;;;3.80;3.50;;;10.40;99.90;;;;;;4986810;28;20260;-71
2022/12/26 14:05:56;;;;;;;2.97;2.77;;;10.40;99.90;;;;;;4973945;28;20617;-71
2022/12/26 14:08:32;;;;;;;2.60;2.40;;;10.40;99.90;;;;;;4986918;28;20364;-71
2022/12/26 14:11:10;;;;;;;3.00;2.80;;;10.30;99.90;;;;;;4986500;28;20237;-71
2022/12/26 14:13:55;;;;;;;2.80;2.70;;;10.30;99.90;;;;;;4987056;28;20221;-71
2022/12/26 14:16:29;;;;;;;3.20;3.00;;;10.30;99.90;;;;;;4986610;28;20316;-71
2022/12/26 14:19:02;;;;;;;3.20;3.00;;;10.20;99.90;;;;;;4986697;28;20225;-71
2022/12/26 14:21:39;;;;;;;3.27;3.07;;;10.20;99.90;;;;;;4990180;28;20680;-71
2022/12/26 14:24:18;;;;;;;3.53;3.33;;;10.20;99.90;;;;;;5006185;28;20302;-71
2022/12/26 14:26:52;;;;;;;3.40;3.20;;;10.10;99.90;;;;;;5006276;28;20745;-71
2022/12/26 14:29:28;;;;;;;3.13;2.80;;;10.10;99.90;;;;;;5006524;28;20208;-71
2022/12/26 14:32:06;;;;;;;3.00;2.70;;;10.00;99.90;;;;;;5006107;28;20665;-71
2022/12/26 14:34:46;;;;;;;3.40;3.20;;;10.10;99.90;;;;;;5005894;28;20199;-71
2022/12/26 14:37:21;;;;;;;2.50;2.40;;;10.00;99.90;;;;;;4988726;28;20230;-71
2022/12/26 14:40:03;;;;;;;2.43;2.30;;;10.10;99.90;;;;;;4986540;28;20280;-71
2022/12/26 14:45:41;;;;;;;2.20;2.10;;;10.00;99.90;;;;;;4986958;28;20236;-71
2022/12/26 14:48:47;;;;;;;3.43;3.23;;;10.00;99.90;;;;;;5005441;28;20644;-71
2022/12/26 14:51:39;;;;;;;2.77;2.57;;;10.00;99.90;;;;;;4989064;28;20627;-71
2022/12/26 14:54:45;;;;;;;2.87;2.67;;;10.10;99.90;;;;;;4971160;28;20202;-71
2022/12/26 14:57:44;;;;;;;2.30;2.10;;;10.00;99.90;;;;;;4986831;28;20313;-71
2022/12/26 15:00:24;;;;;;;3.43;2.10;;;10.00;99.90;;;;;;4985778;28;20597;-71
2022/12/26 15:03:19;;;;;;;3.00;2.80;;;10.00;99.90;;;;;;4990230;28;20436;-71
2022/12/26 15:05:50;;;;;;;3.00;2.77;;;10.10;99.90;;;;;;4989965;28;20201;-71
2022/12/26 15:08:43;;;;;;;2.43;2.33;;;10.10;99.90;;;;;;4989762;28;20312;-71
2022/12/26 15:11:40;;;;;;;2.70;2.50;;;10.10;99.90;;;;;;4988488;28;20249;-71
2022/12/26 15:14:46;;;;;;;2.47;2.37;;;10.00;99.90;;;;;;4989866;28;20194;-71
2022/12/26 15:17:23;;;;;;;2.30;2.10;;;10.00;99.90;;;;;;4989372;28;20241;-71
2022/12/26 15:20:24;;;;;;;2.20;2.10;;;10.00;99.90;;;;;;4970364;28;20211;-72
2022/12/26 15:23:18;;;;;;;3.07;2.70;;;10.00;99.90;;;;;;4970651;28;20226;-72
2022/12/26 15:26:26;;;;;;;2.40;2.30;;;10.00;99.90;;;;;;4969992;28;20591;-71
2022/12/26 15:29:27;;;;;;;2.27;2.17;;;10.00;99.90;;;;;;4970034;28;20237;-71
2022/12/26 15:32:03;;;;;;;2.67;2.47;;;10.00;99.90;;;;;;4966672;28;20210;-71
2022/12/26 15:34:58;;;;;;;2.17;2.07;;;10.00;99.90;;;;;;4989352;28;20205;-71
2022/12/26 15:37:48;;;;;;;3.00;2.40;;;9.90;99.90;;;;;;4984303;28;20249;-71